Time;durP1;ratioP1;P1;durP2;ratioP2;P2;SDS_P1;SDS_P2;PMS_P1;PMS_P2;Temp;Humidity;BMP_temperature;BMP_pressure;BME280_temperature;BME280_humidity;BME280_pressure;Samples;Min_cycle;Max_cycle;Signal;HPM_P1;HPM_P2
2023/10/16 00:01:21;;;;;;;8.27;3.35;;;;;;;0.90;100.00;99532.41;4993565;28;20034;-74
2023/10/16 00:03:48;;;;;;;6.55;3.70;;;;;;;0.90;100.00;99543.06;5023071;28;20196;-74
2023/10/16 00:06:14;;;;;;;8.48;3.38;;;;;;;0.84;100.00;99538.25;5022583;28;20025;-75
2023/10/16 00:08:47;;;;;;;7.05;3.70;;;;;;;0.84;100.00;99536.44;5005215;28;20068;-74
2023/10/16 00:11:17;;;;;;;8.38;3.58;;;;;;;1.05;100.00;99555.16;5020021;28;20076;-75
2023/10/16 00:13:50;;;;;;;4.90;3.00;;;;;;;1.01;100.00;99560.84;5007530;28;20028;-74
2023/10/16 00:16:17;;;;;;;10.18;3.53;;;;;;;1.01;100.00;99553.69;5032366;28;20034;-74
2023/10/16 00:18:45;;;;;;;6.97;3.45;;;;;;;1.13;100.00;99549.22;5005184;28;20022;-74
2023/10/16 00:21:11;;;;;;;6.47;3.65;;;;;;;1.07;100.00;99531.91;5003119;28;20025;-75
2023/10/16 00:23:39;;;;;;;6.53;3.40;;;;;;;1.09;100.00;99531.75;5015473;28;20251;-75
2023/10/16 00:26:16;;;;;;;8.73;3.22;;;;;;;0.95;100.00;99524.91;5009775;28;20029;-75
2023/10/16 00:28:44;;;;;;;5.93;3.50;;;;;;;1.02;100.00;99552.75;4985755;28;20049;-74
2023/10/16 00:31:12;;;;;;;6.13;3.17;;;;;;;0.91;100.00;99547.41;5002134;28;20026;-74
2023/10/16 00:33:40;;;;;;;8.52;3.00;;;;;;;0.87;100.00;99541.50;5011846;28;20026;-74
2023/10/16 00:36:05;;;;;;;7.03;2.80;;;;;;;0.90;100.00;99551.06;5046077;28;20025;-75
2023/10/16 00:38:37;;;;;;;7.10;2.78;;;;;;;0.81;100.00;99539.34;5046119;28;20446;-74
2023/10/16 00:41:17;;;;;;;5.32;2.85;;;;;;;0.67;100.00;99536.91;5025082;28;20334;-74
2023/10/16 00:43:44;;;;;;;7.47;2.67;;;;;;;0.80;100.00;99550.09;5000721;28;20029;-74
2023/10/16 00:46:14;;;;;;;6.90;3.13;;;;;;;1.01;100.00;99540.38;5007528;28;20025;-74
2023/10/16 00:48:40;;;;;;;4.63;2.30;;;;;;;0.95;100.00;99526.72;5006594;28;20291;-74
2023/10/16 00:51:09;;;;;;;4.70;2.55;;;;;;;0.95;100.00;99540.88;5000410;28;20026;-75
2023/10/16 00:53:36;;;;;;;6.03;2.88;;;;;;;0.73;100.00;99516.94;5025687;28;20021;-75
2023/10/16 00:56:08;;;;;;;6.75;2.88;;;;;;;0.70;100.00;99522.50;5020371;28;20078;-75
2023/10/16 00:58:37;;;;;;;5.97;3.03;;;;;;;0.78;100.00;99536.06;5006246;28;20048;-75
2023/10/16 01:01:08;;;;;;;5.80;3.13;;;;;;;0.76;100.00;99522.00;5010682;28;20062;-75
2023/10/16 01:03:36;;;;;;;7.47;2.80;;;;;;;0.83;100.00;99504.56;5018682;28;20083;-75
2023/10/16 01:06:03;;;;;;;3.65;2.58;;;;;;;0.81;100.00;99526.03;5027637;23;20492;-51
2023/10/16 01:08:29;;;;;;;5.93;3.00;;;;;;;0.73;100.00;99525.75;4980906;28;20496;-50
2023/10/16 01:10:57;;;;;;;4.68;2.80;;;;;;;0.69;100.00;99519.00;4982234;28;20030;-50
2023/10/16 01:13:28;;;;;;;6.95;3.13;;;;;;;0.69;100.00;99532.31;4995175;28;20028;-50
2023/10/16 01:15:56;;;;;;;6.70;3.17;;;;;;;0.75;100.00;99518.50;4993588;28;20034;-50
2023/10/16 01:18:23;;;;;;;9.38;3.38;;;;;;;0.75;100.00;99523.00;4990210;28;20536;-50
2023/10/16 01:20:49;;;;;;;6.20;2.90;;;;;;;0.74;100.00;99511.50;4991506;28;20025;-51
2023/10/16 01:23:25;;;;;;;8.95;3.50;;;;;;;0.90;100.00;99512.94;4982489;28;20023;-50
2023/10/16 01:25:51;;;;;;;8.15;3.42;;;;;;;0.81;100.00;99510.03;5006545;28;20022;-51
2023/10/16 01:28:18;;;;;;;5.90;3.10;;;;;;;0.77;100.00;99508.59;4994566;28;20025;-50
2023/10/16 01:30:45;;;;;;;5.20;3.38;;;;;;;0.80;100.00;99508.31;4982284;28;20030;-50
2023/10/16 01:33:11;;;;;;;8.50;3.08;;;;;;;0.70;100.00;99514.53;4992787;28;20109;-50
2023/10/16 01:35:37;;;;;;;10.70;3.20;;;;;;;0.69;100.00;99507.50;4996541;28;20030;-50
2023/10/16 01:38:14;;;;;;;4.72;3.10;;;;;;;0.66;100.00;99511.28;4989474;28;20040;-51
2023/10/16 01:41:13;;;;;;;4.50;2.80;;;;;;;0.72;100.00;99508.09;4988799;28;20040;-49
2023/10/16 01:43:39;;;;;;;6.75;2.75;;;;;;;0.66;100.00;99513.94;4995758;28;20088;-50
2023/10/16 01:46:15;;;;;;;6.97;3.08;;;;;;;0.72;100.00;99496.59;4990317;28;20034;-50
2023/10/16 01:48:45;;;;;;;6.30;3.03;;;;;;;0.60;100.00;99499.28;4987818;28;20030;-50
2023/10/16 01:51:19;;;;;;;7.93;3.08;;;;;;;0.58;100.00;99503.06;4993061;28;20034;-50
2023/10/16 01:53:44;;;;;;;5.18;3.10;;;;;;;0.49;100.00;99509.94;4988808;28;20049;-50
2023/10/16 01:56:13;;;;;;;5.13;2.72;;;;;;;0.55;100.00;99505.94;4988730;28;20491;-50
2023/10/16 01:58:41;;;;;;;5.07;2.53;;;;;;;0.46;100.00;99499.53;4988586;28;20385;-51
2023/10/16 02:01:08;;;;;;;7.13;2.88;;;;;;;0.52;100.00;99500.84;4989472;28;20128;-50
2023/10/16 02:03:34;;;;;;;8.07;2.85;;;;;;;0.46;100.00;99496.03;4987995;28;20034;-50
2023/10/16 02:05:59;;;;;;;6.07;3.13;;;;;;;0.41;100.00;99497.22;4986748;28;20536;-50
2023/10/16 02:08:25;;;;;;;5.70;2.92;;;;;;;0.55;100.00;99501.47;5011776;28;20112;-50
2023/10/16 02:10:50;;;;;;;7.22;3.00;;;;;;;0.58;100.00;99498.56;4986931;28;20108;-50
2023/10/16 02:13:16;;;;;;;7.68;3.00;;;;;;;0.49;100.00;99495.78;4984204;28;20120;-50
2023/10/16 02:15:42;;;;;;;6.00;2.38;;;;;;;0.38;100.00;99492.16;4996326;28;20492;-50
2023/10/16 02:18:23;;;;;;;7.10;2.53;;;;;;;0.29;100.00;99487.56;4981319;28;20037;-50
2023/10/16 02:20:50;;;;;;;5.25;3.20;;;;;;;0.19;100.00;99486.59;4990855;28;20043;-50
2023/10/16 02:23:17;;;;;;;4.85;2.60;;;;;;;0.13;100.00;99479.97;4995821;28;20029;-50
2023/10/16 02:25:43;;;;;;;5.10;2.78;;;;;;;0.13;100.00;99479.97;4988455;28;20108;-50
2023/10/16 02:28:08;;;;;;;7.50;3.13;;;;;;;0.18;100.00;99484.88;4991764;28;20128;-50
2023/10/16 02:30:38;;;;;;;6.22;3.05;;;;;;;0.20;100.00;99481.13;4979308;28;20053;-50
2023/10/16 02:33:15;;;;;;;4.80;2.70;;;;;;;0.21;100.00;99477.53;4996080;28;20516;-49
2023/10/16 02:35:53;;;;;;;10.63;2.50;;;;;;;0.09;100.00;99482.97;4987562;28;20170;-50
2023/10/16 02:38:27;;;;;;;4.57;2.42;;;;;;;0.09;100.00;99474.97;4991551;28;20030;-50
2023/10/16 02:40:54;;;;;;;5.03;2.33;;;;;;;0.09;100.00;99470.50;4982269;28;20101;-50
2023/10/16 02:43:20;;;;;;;5.80;3.33;;;;;;;0.21;100.00;99476.69;4982950;28;20023;-50
2023/10/16 02:45:47;;;;;;;5.22;2.78;;;;;;;0.15;100.00;99471.84;4995725;28;20026;-50
2023/10/16 02:48:18;;;;;;;7.78;2.67;;;;;;;0.10;100.00;99476.66;4988014;28;20069;-50
2023/10/16 02:50:53;;;;;;;7.05;3.15;;;;;;;0.01;100.00;99472.94;4985457;28;20027;-50
2023/10/16 02:53:23;;;;;;;6.50;3.00;;;;;;;-0.13;100.00;99475.78;4986278;28;20482;-50
2023/10/16 02:55:49;;;;;;;;;;;;;;;-0.27;100.00;99467.06;4987117;28;20061;-50
2023/10/16 02:58:15;;;;;;;4.18;2.53;;;;;;;-0.23;100.00;99457.91;4994090;28;19963;-50
2023/10/16 03:00:49;;;;;;;5.65;2.40;;;;;;;-0.18;100.00;99464.66;4993262;28;20030;-50
2023/10/16 03:03:17;;;;;;;6.07;2.40;;;;;;;-0.10;100.00;99468.44;4980153;28;20029;-50
2023/10/16 03:05:44;;;;;;;8.50;2.90;;;;;;;-0.07;100.00;99467.34;4985241;28;20038;-50
2023/10/16 03:08:09;;;;;;;5.82;3.05;;;;;;;-0.11;100.00;99468.53;4989953;28;20477;-50
2023/10/16 03:10:36;;;;;;;4.50;2.63;;;;;;;-0.09;100.00;99459.47;4991032;28;20032;-50
2023/10/16 03:13:05;;;;;;;4.97;2.75;;;;;;;-0.14;100.00;99455.50;4983536;28;20474;-50
2023/10/16 03:15:38;;;;;;;7.25;2.95;;;;;;;-0.18;100.00;99454.03;4981030;28;20057;-50
2023/10/16 03:18:04;;;;;;;6.10;3.22;;;;;;;-0.08;100.00;99461.19;4984743;28;20030;-50
2023/10/16 03:20:36;;;;;;;6.70;3.45;;;;;;;-0.19;100.00;99458.50;4984809;28;20073;-50
2023/10/16 03:23:06;;;;;;;4.53;2.85;;;;;;;-0.31;100.00;99462.97;4987661;28;20029;-50
2023/10/16 03:28:07;;;;;;;5.05;2.88;;;;;;;-0.36;100.00;99462.47;5010457;28;20125;-50
2023/10/16 03:30:32;;;;;;;6.25;2.63;;;;;;;-0.25;100.00;99459.84;4988309;28;20113;-50
2023/10/16 03:32:59;;;;;;;8.32;3.17;;;;;;;-0.26;100.00;99460.81;4977421;28;20022;-50
2023/10/16 03:35:31;;;;;;;5.95;3.28;;;;;;;-0.30;100.00;99456.69;4987638;28;20026;-50
2023/10/16 03:37:58;;;;;;;4.50;2.90;;;;;;;-0.34;100.00;99457.03;5004426;28;20404;-50
2023/10/16 03:40:25;;;;;;;7.20;3.58;;;;;;;-0.32;100.00;99458.59;5011091;28;20393;-50
2023/10/16 03:42:54;;;;;;;6.65;2.58;;;;;;;-0.36;100.00;99456.31;4987580;28;20026;-50
2023/10/16 03:45:21;;;;;;;4.03;2.25;;;;;;;-0.30;100.00;99454.00;4983541;28;20987;-50
2023/10/16 03:48:00;;;;;;;6.88;3.22;;;;;;;-0.19;100.00;99452.34;4990509;28;20025;-50
2023/10/16 03:50:28;;;;;;;4.03;2.85;;;;;;;-0.19;100.00;99457.66;4989708;28;20481;-50
2023/10/16 03:52:54;;;;;;;7.47;3.35;;;;;;;-0.28;100.00;99460.06;4978261;28;20045;-50
2023/10/16 03:55:25;;;;;;;7.63;4.90;;;;;;;-0.37;100.00;99449.28;4990972;28;20482;-50
2023/10/16 03:57:55;;;;;;;6.95;4.32;;;;;;;-0.38;100.00;99455.59;5003334;28;20037;-50
2023/10/16 04:00:43;;;;;;;7.78;4.28;;;;;;;-0.37;100.00;99443.97;4991312;28;20509;-50
2023/10/16 04:03:09;;;;;;;8.18;4.13;;;;;;;-0.24;100.00;99439.41;4995110;28;20030;-50
2023/10/16 04:05:47;;;;;;;8.10;3.42;;;;;;;-0.39;100.00;99436.13;4995442;28;20042;-50
2023/10/16 04:08:23;;;;;;;5.82;3.38;;;;;;;-0.47;100.00;99450.00;4989232;28;20462;-50
2023/10/16 04:10:49;;;;;;;7.47;2.95;;;;;;;-0.58;100.00;99447.31;4990447;28;20037;-50
2023/10/16 04:13:16;;;;;;;7.43;3.25;;;;;;;-0.58;100.00;99446.47;4997932;28;20492;-50
2023/10/16 04:18:19;;;;;;;9.98;3.58;;;;;;;-0.67;100.00;99440.03;5012799;28;20049;-50
2023/10/16 04:20:44;;;;;;;9.73;3.50;;;;;;;-0.68;100.00;99436.53;4995436;28;20117;-50
2023/10/16 04:36:53;;;;;;;5.72;2.88;;;;;;;-0.70;100.00;99429.66;5000054;28;20096;-50
2023/10/16 04:47:42;;;;;;;5.85;3.10;;;;;;;-0.74;100.00;99421.06;5004361;28;20096;-50
2023/10/16 04:50:11;;;;;;;4.38;2.80;;;;;;;-0.88;100.00;99421.25;4984824;28;20393;-50
2023/10/16 04:58:27;;;;;;;4.93;2.40;;;;;;;-1.01;100.00;99412.53;5012972;28;20031;-51
2023/10/16 05:14:22;;;;;;;7.28;3.25;;;;;;;-0.72;100.00;99399.69;5013394;28;20026;-51
2023/10/16 06:14:10;;;;;;;12.75;6.75;;;;;;;0.82;100.00;99407.84;5002624;28;20030;-55
2023/10/16 06:16:38;;;;;;;17.02;8.98;;;;;;;2.76;100.00;99404.50;4988327;28;20037;-55
2023/10/16 06:19:14;;;;;;;11.95;6.63;;;;;;;4.78;100.00;99382.63;4990622;28;20124;-56
2023/10/16 06:21:40;;;;;;;7.72;4.90;;;;;;;6.18;100.00;99357.66;4987141;28;20040;-56
2023/10/16 06:24:17;;;;;;;16.58;4.97;;;;;;;6.65;100.00;99350.91;4984535;28;20385;-56
2023/10/16 06:26:46;;;;;;;6.38;3.70;;;;;;;6.98;100.00;99354.50;4987029;28;20133;-56
2023/10/16 06:29:12;;;;;;;5.85;3.20;;;;;;;7.02;100.00;99353.16;4989886;28;20099;-56
2023/10/16 06:31:49;;;;;;;5.30;3.55;;;;;;;6.72;100.00;99360.84;4984610;28;20021;-56
2023/10/16 06:34:15;;;;;;;5.28;3.00;;;;;;;6.99;100.00;99358.88;4994854;28;20068;-56
2023/10/16 06:36:41;;;;;;;8.48;2.58;;;;;;;8.01;100.00;99362.81;4989374;28;20558;-56
2023/10/16 06:39:22;;;;;;;4.75;2.45;;;;;;;8.85;100.00;99363.09;4991833;28;20041;-56
2023/10/16 06:41:53;;;;;;;4.88;1.98;;;;;;;10.28;100.00;99352.34;5002789;28;20032;-55
2023/10/16 06:44:21;;;;;;;5.43;2.35;;;;;;;10.96;100.00;99352.94;4989598;28;20114;-54
2023/10/16 06:46:49;;;;;;;4.47;2.47;;;;;;;11.69;97.59;99355.47;4989055;28;20076;-54
2023/10/16 06:49:16;;;;;;;6.25;2.88;;;;;;;12.11;85.98;99350.16;4992817;28;20049;-54
2023/10/16 06:51:44;;;;;;;7.93;3.50;;;;;;;12.33;78.73;99356.31;4990490;28;20026;-54
2023/10/16 06:54:10;;;;;;;5.72;4.03;;;;;;;11.27;80.60;99354.50;4995151;28;20033;-54
2023/10/16 06:56:38;;;;;;;8.35;3.03;;;;;;;12.22;79.13;99350.44;4987825;28;20442;-54
2023/10/16 06:59:04;;;;;;;4.82;3.10;;;;;;;13.09;73.99;99354.28;4992686;28;20037;-54
2023/10/16 07:01:29;;;;;;;5.00;2.85;;;;;;;13.53;69.34;99355.63;4990652;28;20080;-55
2023/10/16 07:03:55;;;;;;;9.73;4.07;;;;;;;13.37;71.55;99359.59;4991201;28;20084;-55
2023/10/16 07:06:24;;;;;;;5.95;3.38;;;;;;;14.11;70.06;99346.75;4990461;28;20034;-54
2023/10/16 07:08:52;;;;;;;8.98;3.00;;;;;;;14.48;67.35;99350.63;5007327;23;20065;-76
2023/10/16 07:11:19;;;;;;;6.38;3.80;;;;;;;14.81;65.59;99354.31;4998245;28;20022;-78
2023/10/16 07:13:44;;;;;;;5.22;3.00;;;;;;;14.69;65.94;99354.97;4985970;28;20068;-74
2023/10/16 07:16:10;;;;;;;4.20;2.85;;;;;;;14.15;66.73;99355.34;5003698;28;20246;-74
2023/10/16 07:18:35;;;;;;;7.43;3.05;;;;;;;15.38;65.79;99357.94;5003435;28;20029;-74
2023/10/16 07:23:37;;;;;;;5.18;2.78;;;;;;;16.75;59.72;99326.94;4999217;28;20042;-74
2023/10/16 07:26:07;;;;;;;3.50;2.28;;;;;;;16.86;58.49;99348.03;4969388;28;20315;-74
2023/10/16 07:28:33;;;;;;;4.72;2.80;;;;;;;17.31;57.35;99348.44;4993166;28;20069;-73
2023/10/16 07:30:59;;;;;;;4.65;2.80;;;;;;;17.67;54.78;99346.59;5005506;28;20022;-74
2023/10/16 07:33:26;;;;;;;4.60;2.60;;;;;;;18.29;55.65;99323.41;5000624;28;20034;-74
2023/10/16 07:35:54;;;;;;;3.95;2.30;;;;;;;18.70;53.87;99335.22;4994744;28;20258;-74
2023/10/16 07:38:25;;;;;;;3.10;2.10;;;;;;;19.07;54.65;99330.19;4991598;28;20030;-74
2023/10/16 07:40:51;;;;;;;3.90;1.98;;;;;;;19.53;51.84;99321.94;4982446;28;20026;-74
2023/10/16 07:43:27;;;;;;;3.42;2.17;;;;;;;19.39;51.46;99315.97;4983301;28;20100;-74
2023/10/16 07:46:16;;;;;;;3.85;2.30;;;;;;;18.33;52.13;99325.41;4979373;28;20018;-73
2023/10/16 07:48:44;;;;;;;7.88;2.10;;;;;;;18.99;52.73;99323.22;4987883;28;20030;-73
2023/10/16 07:51:10;;;;;;;7.88;3.88;;;;;;;19.21;52.28;99317.84;4996892;28;20243;-73
2023/10/16 07:53:37;;;;;;;9.70;2.28;;;;;;;19.68;51.21;99328.56;4982025;28;20030;-73
2023/10/16 07:56:03;;;;;;;3.10;1.60;;;;;;;20.36;49.93;99314.72;4994256;28;20105;-73
2023/10/16 07:58:47;;;;;;;6.07;1.80;;;;;;;19.81;50.44;99326.56;4997614;28;20088;-73
2023/10/16 08:03:41;;;;;;;5.55;1.70;;;;;;;19.01;50.50;99318.31;5003608;28;20318;-76
2023/10/16 08:06:12;;;;;;;4.15;1.80;;;;;;;20.06;50.12;99310.44;4980518;28;20080;-76
2023/10/16 08:08:39;;;;;;;3.20;1.75;;;;;;;20.84;48.77;99301.28;5001587;28;20026;-77
2023/10/16 08:11:12;;;;;;;4.22;1.98;;;;;;;19.79;48.82;99302.09;4994585;28;20089;-78
2023/10/16 08:13:49;;;;;;;3.35;2.10;;;;;;;19.84;49.07;99296.69;4987351;28;20027;-77
2023/10/16 08:16:19;;;;;;;3.70;2.03;;;;;;;20.29;48.75;99314.88;4999612;28;20036;-76
2023/10/16 08:18:48;;;;;;;4.85;2.35;;;;;;;19.29;50.52;99300.16;4992985;28;20323;-77
2023/10/16 08:21:24;;;;;;;5.30;2.08;;;;;;;21.63;48.39;99301.47;4997512;28;20036;-78
2023/10/16 08:23:57;;;;;;;4.38;2.22;;;;;;;20.86;47.83;99307.34;4977166;28;20216;-78
2023/10/16 08:26:29;;;;;;;7.18;2.70;;;;;;;17.93;52.62;99325.34;5004220;28;20056;-77
2023/10/16 08:28:56;;;;;;;3.70;1.95;;;;;;;18.39;52.50;99307.16;5018597;28;20049;-78
2023/10/16 08:31:24;;;;;;;4.35;2.20;;;;;;;19.88;50.11;99314.28;5017504;28;20354;-78
2023/10/16 08:33:51;;;;;;;4.72;2.60;;;;;;;19.18;50.61;99320.28;5013186;28;20037;-77
2023/10/16 08:36:20;;;;;;;4.80;2.58;;;;;;;19.09;50.79;99319.00;5012224;28;20035;-75
2023/10/16 08:38:52;;;;;;;6.90;2.60;;;;;;;20.11;49.58;99312.44;4989173;28;20022;-78
2023/10/16 08:41:29;;;;;;;3.83;2.28;;;;;;;19.53;51.70;99306.31;4993504;28;20315;-76
2023/10/16 08:44:03;;;;;;;5.43;2.33;;;;;;;19.42;52.89;99310.81;5007162;28;20044;-76
2023/10/16 08:46:44;;;;;;;4.15;2.00;;;;;;;19.80;50.91;99316.63;5006209;28;20200;-76
2023/10/16 08:49:10;;;;;;;3.30;2.00;;;;;;;19.81;50.54;99326.56;4989031;28;20026;-75
2023/10/16 08:51:36;;;;;;;2.63;1.80;;;;;;;19.85;52.33;99320.28;5005613;28;20030;-74
2023/10/16 08:54:04;;;;;;;3.20;1.80;;;;;;;19.59;51.28;99337.41;4998525;28;20080;-72
2023/10/16 08:56:30;;;;;;;2.42;1.50;;;;;;;20.75;50.82;99329.25;4987068;28;20131;-71
2023/10/16 08:58:56;;;;;;;3.45;1.80;;;;;;;20.81;50.41;99326.56;5003983;28;20045;-71
2023/10/16 09:01:24;;;;;;;2.75;1.67;;;;;;;20.18;49.09;99329.56;4987651;28;20281;-71
2023/10/16 09:04:08;;;;;;;3.60;1.67;;;;;;;20.35;51.07;99330.34;5003917;28;20298;-72
2023/10/16 09:06:38;;;;;;;3.13;1.70;;;;;;;21.86;48.77;99332.50;5004561;28;20030;-72
2023/10/16 09:09:13;;;;;;;2.65;1.90;;;;;;;20.75;48.70;99333.88;5002879;28;20064;-71
2023/10/16 09:11:39;;;;;;;5.97;2.25;;;;;;;22.51;47.71;99328.50;5004966;28;20110;-72
2023/10/16 09:14:07;;;;;;;3.28;1.75;;;;;;;22.92;45.77;99319.53;5005131;28;20303;-71
2023/10/16 09:16:34;;;;;;;4.60;1.80;;;;;;;23.12;45.44;99316.03;5001769;28;20046;-71
2023/10/16 09:19:02;;;;;;;3.50;1.80;;;;;;;24.38;44.28;99307.13;4999552;28;20065;-71
2023/10/16 09:21:28;;;;;;;3.97;1.80;;;;;;;25.86;42.75;99306.25;4990954;28;20037;-72
2023/10/16 09:23:59;;;;;;;4.40;1.90;;;;;;;24.39;42.76;99314.28;4974133;28;20042;-71
2023/10/16 09:26:28;;;;;;;6.60;1.88;;;;;;;25.67;41.62;99305.28;4989225;28;20034;-71
2023/10/16 09:28:54;;;;;;;3.90;1.92;;;;;;;26.72;39.98;99302.78;4988333;28;20089;-72
2023/10/16 09:31:21;;;;;;;2.60;1.60;;;;;;;24.49;41.50;99306.00;4991107;28;20030;-71
2023/10/16 09:33:49;;;;;;;2.97;1.80;;;;;;;25.00;41.24;99300.22;4994744;28;20015;-71
2023/10/16 09:36:20;;;;;;;;;;;;;;;26.79;39.58;99298.53;5004184;28;20035;-71
2023/10/16 09:38:59;;;;;;;4.03;1.65;;;;;;;27.36;39.97;99290.22;4998863;28;19909;-72
2023/10/16 09:44:37;;;;;;;4.00;1.65;;;;;;;28.02;38.67;99293.81;4998621;28;20007;-72
2023/10/16 09:49:10;;;;;;;4.80;1.70;;;;;;;27.09;38.64;99277.00;5009330;28;20338;-71
2023/10/16 09:51:35;;;;;;;5.20;1.95;;;;;;;27.56;38.27;99275.16;5006885;28;20076;-72
2023/10/16 09:54:04;;;;;;;2.17;1.27;;;;;;;28.06;38.29;99267.06;4994205;28;20112;-71
2023/10/16 09:56:35;;;;;;;;;;;;;;;27.52;37.57;99286.06;4999555;28;20219;-71
2023/10/16 09:59:08;;;;;;;2.85;1.55;;;;;;;27.83;37.00;99268.88;5000759;28;20099;-71
2023/10/16 10:01:38;;;;;;;3.70;1.05;;;;;;;28.36;36.65;99273.13;4998691;28;20054;-71
2023/10/16 10:04:07;;;;;;;3.00;1.42;;;;;;;29.26;35.71;99276.19;5001669;28;20026;-72
2023/10/16 10:06:39;;;;;;;2.85;1.60;;;;;;;29.56;35.40;99271.00;5003057;28;20038;-71
2023/10/16 10:11:45;;;;;;;27.75;19.92;;;;;;;28.93;35.42;99268.03;5003287;28;20078;-71
2023/10/16 10:16:51;;;;;;;9.30;4.63;;;;;;;27.90;35.46;99263.75;5000553;28;20073;-71
2023/10/16 10:19:35;;;;;;;3.67;1.52;;;;;;;28.42;34.98;99258.78;5001360;28;20022;-72
2023/10/16 10:22:06;;;;;;;2.20;1.10;;;;;;;28.69;33.66;99259.94;5002557;28;20049;-71
2023/10/16 10:24:34;;;;;;;2.13;1.02;;;;;;;28.98;33.59;99244.81;5002527;28;20041;-71
2023/10/16 10:27:03;;;;;;;;;;;;;;;28.47;33.89;99248.72;5009681;28;20049;-72
2023/10/16 10:29:29;;;;;;;3.75;1.05;;;;;;;27.95;35.58;99248.91;4998567;28;20195;-71
2023/10/16 10:31:56;;;;;;;2.97;0.65;;;;;;;28.79;31.56;99245.78;4984805;28;20036;-71
2023/10/16 10:34:27;;;;;;;1.83;0.90;;;;;;;26.70;32.97;99249.50;5003317;28;20076;-71
2023/10/16 10:36:53;;;;;;;2.78;0.40;;;;;;;28.04;29.73;99246.25;5002786;28;20018;-72
2023/10/16 10:39:23;;;;;;;1.85;0.82;;;;;;;28.04;28.44;99249.03;5002001;28;20026;-72
2023/10/16 10:41:55;;;;;;;0.65;0.30;;;;;;;27.56;28.62;99236.22;5002587;28;20025;-71
2023/10/16 10:44:35;;;;;;;2.05;0.50;;;;;;;26.13;28.10;99253.00;5004866;28;20022;-72
2023/10/16 10:47:14;;;;;;;1.08;0.38;;;;;;;25.46;29.19;99247.25;5004081;28;20032;-72
2023/10/16 10:49:41;;;;;;;1.88;0.45;;;;;;;24.16;30.91;99244.72;5002565;28;20052;-72
2023/10/16 10:52:07;;;;;;;1.42;0.40;;;;;;;25.57;31.03;99242.44;4985610;28;20038;-72
2023/10/16 10:54:42;;;;;;;0.82;0.40;;;;;;;24.20;30.97;99222.84;5002078;28;20269;-71
2023/10/16 10:57:15;;;;;;;1.90;0.40;;;;;;;24.21;32.47;99227.28;4990602;28;20057;-71
2023/10/16 10:59:41;;;;;;;2.10;0.63;;;;;;;24.79;31.72;99216.47;4985610;28;20219;-72
2023/10/16 11:04:46;;;;;;;0.63;0.43;;;;;;;26.16;31.13;99212.75;4990067;28;20339;-72
2023/10/16 11:07:11;;;;;;;0.80;0.40;;;;;;;25.93;30.63;99206.91;4992241;28;20034;-71
2023/10/16 11:09:38;;;;;;;1.00;0.30;;;;;;;26.51;30.24;99197.56;5005412;28;20041;-75
2023/10/16 11:12:07;;;;;;;1.88;0.43;;;;;;;24.35;31.19;99208.94;4985677;28;20022;-77
2023/10/16 11:14:35;;;;;;;0.73;0.40;;;;;;;25.70;30.88;99204.91;4994448;28;20061;-77
2023/10/16 11:17:01;;;;;;;0.80;0.47;;;;;;;25.37;31.63;99199.16;4984733;28;20022;-75
2023/10/16 11:19:43;;;;;;;0.95;0.40;;;;;;;26.37;29.91;99186.41;5002188;28;20048;-72
2023/10/16 11:22:16;;;;;;;1.05;0.30;;;;;;;27.31;28.81;99173.63;4997776;28;20126;-74
2023/10/16 11:24:42;;;;;;;0.80;0.40;;;;;;;27.24;29.19;99182.31;4972106;28;20030;-72
2023/10/16 11:27:07;;;;;;;1.30;0.40;;;;;;;26.12;29.94;99183.94;5005788;28;20030;-77
2023/10/16 11:29:52;;;;;;;0.93;0.30;;;;;;;25.69;29.82;99181.09;5002411;28;20323;-80
2023/10/16 11:32:25;;;;;;;1.17;0.40;;;;;;;25.47;29.84;99170.53;4985307;28;20350;-80
2023/10/16 11:35:12;;;;;;;0.17;0.10;;;;;;;25.20;30.82;99166.34;4987119;28;20219;-75
2023/10/16 11:37:39;;;;;;;0.40;0.30;;;;;;;24.49;31.12;99154.69;5002943;28;20033;-76
2023/10/16 11:40:18;;;;;;;0.95;0.30;;;;;;;23.66;32.84;99155.31;4997549;28;20032;-76
2023/10/16 11:42:47;;;;;;;0.57;0.35;;;;;;;23.59;32.00;99154.78;5004413;28;20258;-75
2023/10/16 11:45:19;;;;;;;1.63;0.52;;;;;;;24.31;31.79;99143.44;5003315;28;20243;-74
2023/10/16 11:47:44;;;;;;;1.50;0.40;;;;;;;23.80;31.76;99145.34;5004092;28;20026;-78
2023/10/16 11:50:17;;;;;;;2.42;0.40;;;;;;;23.15;33.36;99128.63;4995794;28;20033;-79
2023/10/16 11:52:46;;;;;;;1.55;0.50;;;;;;;23.30;33.05;99127.78;4990064;28;20094;-80
2023/10/16 11:55:13;;;;;;;1.48;0.35;;;;;;;23.30;32.98;99130.53;4989015;28;20018;-79
2023/10/16 11:57:41;;;;;;;0.80;0.57;;;;;;;22.57;33.49;99132.75;5005867;28;20037;-74
2023/10/16 12:00:17;;;;;;;1.48;0.50;;;;;;;22.83;33.15;99126.13;5003124;28;20030;-75
2023/10/16 12:02:46;;;;;;;1.02;0.30;;;;;;;24.30;32.52;99122.44;4989109;28;20022;-78
2023/10/16 12:05:13;;;;;;;1.23;0.30;;;;;;;23.10;33.21;99108.47;4976895;28;20034;-78
2023/10/16 12:07:43;;;;;;;2.58;0.30;;;;;;;23.75;33.00;99103.91;5003646;28;20319;-79
2023/10/16 12:10:09;;;;;;;1.65;0.40;;;;;;;23.67;33.26;99123.81;4988279;28;20030;-75
2023/10/16 12:12:34;;;;;;;0.80;0.30;;;;;;;23.86;32.95;99095.56;5007380;28;20250;-76
2023/10/16 12:15:02;;;;;;;2.50;0.40;;;;;;;23.98;31.64;99118.19;4999817;28;20069;-75
2023/10/16 12:17:28;;;;;;;0.82;0.38;;;;;;;24.25;31.50;99118.56;4980230;28;20030;-74
2023/10/16 12:19:53;;;;;;;1.13;0.60;;;;;;;23.50;33.05;99109.47;4999274;28;20033;-75
2023/10/16 12:22:20;;;;;;;1.25;0.60;;;;;;;22.28;34.24;99105.66;4996462;28;20030;-74
2023/10/16 12:24:47;;;;;;;0.75;0.40;;;;;;;21.48;34.80;99097.63;4993411;28;20030;-71
2023/10/16 12:27:15;;;;;;;0.75;0.40;;;;;;;22.20;35.36;99097.94;4999487;28;20041;-73
2023/10/16 12:29:41;;;;;;;1.50;0.50;;;;;;;23.53;33.32;99073.03;5006754;28;20034;-77
2023/10/16 12:32:07;;;;;;;1.40;0.68;;;;;;;24.65;32.71;99066.91;5016994;28;20267;-75
2023/10/16 12:34:33;;;;;;;1.70;0.90;;;;;;;23.59;32.81;99071.91;5006524;28;20049;-74
2023/10/16 12:37:00;;;;;;;0.85;0.50;;;;;;;22.84;33.42;99077.28;5004644;28;20025;-76
2023/10/16 12:39:27;;;;;;;1.17;0.52;;;;;;;23.50;33.23;99068.06;4999120;28;20026;-75
2023/10/16 12:41:57;;;;;;;1.05;0.63;;;;;;;23.05;34.31;99059.63;5007125;28;20061;-77
2023/10/16 12:44:23;;;;;;;2.10;0.93;;;;;;;24.01;33.99;99073.38;4981785;28;20065;-77
2023/10/16 12:46:50;;;;;;;1.60;1.08;;;;;;;23.35;34.37;99066.19;4981730;28;20022;-76
2023/10/16 12:49:15;;;;;;;2.47;0.50;;;;;;;22.81;34.72;99073.16;5002308;28;20018;-74
2023/10/16 12:51:42;;;;;;;3.13;0.93;;;;;;;22.98;35.56;99061.88;5015472;28;20026;-74
2023/10/16 12:54:09;;;;;;;1.50;0.63;;;;;;;24.33;34.16;99067.38;5005149;28;20036;-76
2023/10/16 12:56:35;;;;;;;2.08;0.70;;;;;;;24.56;33.70;99048.44;5003558;28;20034;-76
2023/10/16 12:59:04;;;;;;;1.25;0.50;;;;;;;24.58;34.57;99065.56;4990667;28;20057;-78
2023/10/16 13:01:29;;;;;;;0.98;0.60;;;;;;;23.78;34.44;99056.38;5009759;28;20049;-76
2023/10/16 13:03:59;;;;;;;0.80;0.60;;;;;;;22.79;35.27;99044.19;5012827;28;20033;-75
2023/10/16 13:06:29;;;;;;;1.63;0.90;;;;;;;23.59;34.82;99044.28;5003979;28;20216;-75
2023/10/16 13:08:58;;;;;;;1.67;0.95;;;;;;;23.43;34.08;99040.75;5048279;23;20049;-78
2023/10/16 13:11:24;;;;;;;0.93;0.57;;;;;;;21.62;35.71;99030.00;5044460;28;20032;-78
2023/10/16 13:13:50;;;;;;;1.40;0.50;;;;;;;21.64;35.76;99043.47;5028793;28;20048;-75
2023/10/16 13:16:24;;;;;;;2.83;0.65;;;;;;;22.18;35.54;99037.53;5043279;28;20136;-72
2023/10/16 13:18:50;;;;;;;2.15;0.50;;;;;;;23.21;34.58;99030.06;5028594;28;20098;-76
2023/10/16 13:21:16;;;;;;;1.73;0.50;;;;;;;23.44;34.69;99025.00;5018218;28;20036;-75
2023/10/16 13:23:41;;;;;;;1.88;0.70;;;;;;;23.75;33.76;99021.03;5017832;28;20222;-75
2023/10/16 13:26:10;;;;;;;4.40;0.57;;;;;;;24.58;33.62;99026.84;5024863;28;20376;-74
2023/10/16 13:28:36;;;;;;;1.50;0.50;;;;;;;23.86;33.82;98993.34;5027432;28;20104;-78
2023/10/16 13:31:03;;;;;;;2.55;0.95;;;;;;;24.06;34.75;99023.59;5032636;28;20253;-76
2023/10/16 13:33:32;;;;;;;2.60;0.90;;;;;;;24.28;35.05;99006.56;5033229;28;20029;-76
2023/10/16 13:36:04;;;;;;;1.98;0.70;;;;;;;24.64;34.32;99003.53;5031665;28;20055;-76
2023/10/16 13:38:31;;;;;;;1.80;0.82;;;;;;;24.12;35.71;99016.91;5040261;28;20022;-75
2023/10/16 13:40:56;;;;;;;2.22;0.80;;;;;;;24.16;34.71;99006.97;5024853;28;20014;-72
2023/10/16 13:43:22;;;;;;;2.25;0.60;;;;;;;24.04;34.74;99009.25;5022500;28;20026;-73
2023/10/16 13:45:51;;;;;;;2.05;1.00;;;;;;;24.06;34.36;99004.25;5026297;28;20022;-73